Time;durP1;ratioP1;P1;durP2;ratioP2;P2;SDS_P1;SDS_P2;PMS_P1;PMS_P2;Temp;Humidity;BMP_temperature;BMP_pressure;BME280_temperature;BME280_humidity;BME280_pressure;Samples;Min_cycle;Max_cycle;Signal;HPM_P1;HPM_P2
2021/04/15 00:00:49;;;;;;;7.28;4.13;;;3.10;46.80;;;;;;5033697;28;20203;-78
2021/04/15 00:03:21;;;;;;;4.63;4.05;;;3.00;47.30;;;;;;5039185;28;20227;-77
2021/04/15 00:05:48;;;;;;;3.70;3.40;;;3.00;47.70;;;;;;5026491;28;20649;-79
2021/04/15 00:08:15;;;;;;;4.22;3.70;;;2.90;47.90;;;;;;5019437;28;20211;-78
2021/04/15 00:10:44;;;;;;;4.35;3.85;;;2.90;48.00;;;;;;5031082;28;20294;-77
2021/04/15 00:13:16;;;;;;;4.85;3.35;;;2.80;48.40;;;;;;5037408;28;20666;-79
2021/04/15 00:15:43;;;;;;;4.25;3.85;;;2.70;48.60;;;;;;5037323;28;20227;-77
2021/04/15 00:18:10;;;;;;;4.68;3.70;;;2.60;49.40;;;;;;5037610;28;20310;-77
2021/04/15 00:20:36;;;;;;;3.47;3.15;;;2.60;49.90;;;;;;5036420;28;20208;-79
2021/04/15 00:23:03;;;;;;;4.88;4.40;;;2.60;50.30;;;;;;5037560;28;20313;-80
2021/04/15 00:25:30;;;;;;;4.88;3.90;;;2.60;50.60;;;;;;5028143;28;20272;-78
2021/04/15 00:27:56;;;;;;;5.90;3.60;;;2.50;50.80;;;;;;5022741;28;20200;-77
2021/04/15 00:30:24;;;;;;;5.90;4.13;;;2.40;50.90;;;;;;5031823;28;20199;-78
2021/04/15 00:32:51;;;;;;;3.92;3.58;;;2.30;51.30;;;;;;5032931;28;20227;-76
2021/04/15 00:35:19;;;;;;;6.78;4.18;;;2.20;52.50;;;;;;5034076;28;20218;-77
2021/04/15 00:37:45;;;;;;;4.68;3.70;;;2.20;52.90;;;;;;5030066;28;20223;-80
2021/04/15 00:40:13;;;;;;;3.85;3.42;;;2.20;52.90;;;;;;5019741;28;20219;-78
2021/04/15 00:42:40;;;;;;;4.38;3.97;;;2.10;52.80;;;;;;5045049;28;20218;-77
2021/04/15 00:45:10;;;;;;;6.63;3.80;;;2.10;53.10;;;;;;5052873;28;20203;-78
2021/04/15 00:47:40;;;;;;;6.93;4.50;;;2.10;52.80;;;;;;5029350;28;20235;-77
2021/04/15 00:50:11;;;;;;;4.53;3.88;;;2.10;52.80;;;;;;5015972;28;20711;-80
2021/04/15 00:52:48;;;;;;;4.47;4.07;;;2.10;52.80;;;;;;5028732;28;20259;-80
2021/04/15 00:55:21;;;;;;;4.90;3.95;;;2.00;53.20;;;;;;5019438;28;20197;-79
2021/04/15 00:57:49;;;;;;;6.50;4.55;;;2.00;53.80;;;;;;5036241;28;20273;-79
2021/04/15 01:03:39;;;;;;;5.07;3.97;;;2.00;53.30;;;;;;4992689;28;20288;-78
2021/04/15 01:06:07;;;;;;;5.35;4.22;;;1.80;54.20;;;;;;4997262;28;20207;-80
2021/04/15 01:08:35;;;;;;;6.63;4.03;;;1.90;55.00;;;;;;4996972;28;20197;-78
2021/04/15 01:11:09;;;;;;;7.72;4.40;;;1.90;54.60;;;;;;4996555;28;20280;-76
2021/04/15 01:13:48;;;;;;;6.65;4.20;;;1.80;54.60;;;;;;5003811;28;20336;-77
2021/04/15 01:16:25;;;;;;;5.45;4.07;;;1.70;54.90;;;;;;5014605;28;20223;-77
2021/04/15 01:19:08;;;;;;;5.35;4.25;;;1.80;55.40;;;;;;5012319;28;20267;-78
2021/04/15 01:22:01;;;;;;;5.85;4.43;;;1.70;55.50;;;;;;5001287;28;20217;-78
2021/04/15 01:24:39;;;;;;;6.47;3.88;;;1.60;56.00;;;;;;4973994;28;20233;-77
2021/04/15 01:27:41;;;;;;;4.10;3.50;;;1.60;56.30;;;;;;4989068;28;20705;-77
2021/04/15 01:30:24;;;;;;;6.57;4.30;;;1.50;56.90;;;;;;5019299;28;20206;-77
2021/04/15 01:33:01;;;;;;;5.40;4.20;;;1.40;56.80;;;;;;5018620;28;20271;-77
2021/04/15 01:35:31;;;;;;;5.28;4.70;;;1.30;57.20;;;;;;5019264;28;20208;-78
2021/04/15 01:38:06;;;;;;;6.30;4.53;;;1.30;58.00;;;;;;5034779;28;20845;-77
2021/04/15 01:40:37;;;;;;;6.03;4.40;;;1.30;58.10;;;;;;5042968;28;20270;-77
2021/04/15 01:43:12;;;;;;;8.80;5.00;;;1.30;59.10;;;;;;5032033;28;20223;-77
2021/04/15 01:45:40;;;;;;;7.70;4.50;;;1.40;58.90;;;;;;5028232;28;20230;-77
2021/04/15 01:48:11;;;;;;;6.38;4.40;;;1.30;59.20;;;;;;5032622;28;20219;-77
2021/04/15 01:50:42;;;;;;;5.47;4.45;;;1.30;59.20;;;;;;5026858;28;20224;-76
2021/04/15 01:53:14;;;;;;;7.28;4.90;;;1.30;59.60;;;;;;5024373;28;20227;-77
2021/04/15 01:55:44;;;;;;;4.53;4.13;;;1.20;60.60;;;;;;5022620;28;20234;-75
2021/04/15 01:58:16;;;;;;;6.10;4.35;;;1.40;60.40;;;;;;5020347;28;20314;-76
2021/04/15 02:00:48;;;;;;;6.65;4.40;;;1.50;59.90;;;;;;5018951;28;20201;-77
2021/04/15 02:03:19;;;;;;;5.28;4.78;;;1.40;59.50;;;;;;5025070;28;20275;-77
2021/04/15 02:05:49;;;;;;;5.45;4.28;;;1.40;59.70;;;;;;5028672;28;20191;-77
2021/04/15 02:08:18;;;;;;;7.50;4.53;;;1.30;59.90;;;;;;5048432;28;20242;-77
2021/04/15 02:10:47;;;;;;;6.60;5.03;;;1.30;60.80;;;;;;5046982;28;20232;-77
2021/04/15 02:13:16;;;;;;;7.68;5.68;;;1.30;61.20;;;;;;5038227;28;20215;-76
2021/04/15 02:15:48;;;;;;;6.68;5.53;;;1.30;61.80;;;;;;5049739;28;20195;-79
2021/04/15 02:18:20;;;;;;;5.15;4.55;;;1.20;61.20;;;;;;5053563;28;20249;-79
2021/04/15 02:20:49;;;;;;;8.30;5.22;;;1.10;62.50;;;;;;5043944;28;20191;-78
2021/04/15 02:23:23;;;;;;;5.68;5.05;;;1.10;63.50;;;;;;5032363;28;20318;-79
2021/04/15 02:25:54;;;;;;;5.78;5.13;;;1.10;64.50;;;;;;5021727;28;20195;-78
2021/04/15 02:28:29;;;;;;;8.77;6.10;;;1.10;64.60;;;;;;5022004;28;20714;-77
2021/04/15 02:31:04;;;;;;;6.90;5.72;;;1.00;64.60;;;;;;5027421;28;20279;-78
2021/04/15 02:33:35;;;;;;;6.20;5.55;;;1.00;65.30;;;;;;5032717;22;20304;-78
2021/04/15 02:36:05;;;;;;;7.80;5.40;;;1.00;65.90;;;;;;5017382;28;20627;-80
2021/04/15 02:38:35;;;;;;;7.70;5.60;;;0.90;66.30;;;;;;5015817;28;20309;-78
2021/04/15 02:41:06;;;;;;;7.70;5.85;;;0.90;66.50;;;;;;5016335;28;20355;-79
2021/04/15 02:43:42;;;;;;;10.48;6.68;;;0.90;67.60;;;;;;5017936;28;20259;-79
2021/04/15 02:46:15;;;;;;;8.13;6.75;;;0.80;67.90;;;;;;5018498;28;20216;-80
2021/04/15 02:48:44;;;;;;;12.35;7.20;;;0.80;69.50;;;;;;5016453;28;20499;-78
2021/04/15 02:51:14;;;;;;;12.00;6.95;;;0.90;69.50;;;;;;5017522;28;20239;-79
2021/04/15 02:53:47;;;;;;;7.65;6.32;;;0.90;69.50;;;;;;5026860;28;20295;-80
2021/04/15 02:56:19;;;;;;;8.57;6.68;;;1.00;69.60;;;;;;5029294;28;20234;-80
2021/04/15 02:58:51;;;;;;;8.63;6.82;;;1.00;69.60;;;;;;5036525;28;20219;-78
2021/04/15 03:01:23;;;;;;;5.93;5.15;;;0.90;69.20;;;;;;5035947;28;20192;-78
2021/04/15 03:03:53;;;;;;;9.00;6.68;;;0.80;69.50;;;;;;5030241;28;20305;-79
2021/04/15 03:06:24;;;;;;;9.75;6.00;;;0.70;69.40;;;;;;5023387;28;20207;-78
2021/04/15 03:08:56;;;;;;;11.25;6.13;;;0.80;69.60;;;;;;5028150;28;20196;-79
2021/04/15 03:11:27;;;;;;;7.68;6.05;;;0.80;69.50;;;;;;5032927;28;20215;-79
2021/04/15 03:13:57;;;;;;;10.75;7.30;;;0.80;69.50;;;;;;5022403;28;20228;-80
2021/04/15 03:16:28;;;;;;;6.82;6.13;;;0.80;69.50;;;;;;5020802;28;20259;-81
2021/04/15 03:19:00;;;;;;;6.50;5.85;;;0.80;69.50;;;;;;5020231;28;20247;-81
2021/04/15 03:21:31;;;;;;;7.85;6.32;;;0.70;69.40;;;;;;5015301;28;20311;-80
2021/04/15 03:24:00;;;;;;;8.90;6.68;;;0.70;69.90;;;;;;5014459;28;20220;-80
2021/04/15 03:26:37;;;;;;;9.88;7.22;;;0.60;70.50;;;;;;5019655;28;20214;-80
2021/04/15 03:29:21;;;;;;;11.93;7.35;;;0.60;71.30;;;;;;5019358;28;20191;-78
2021/04/15 03:31:54;;;;;;;7.95;7.13;;;0.60;71.50;;;;;;5023187;28;20185;-79
2021/04/15 03:34:28;;;;;;;8.80;6.90;;;0.60;71.90;;;;;;5027496;28;20240;-81
2021/04/15 03:36:58;;;;;;;8.00;6.63;;;0.70;72.70;;;;;;5029709;28;20286;-80
2021/04/15 03:39:29;;;;;;;9.10;7.10;;;0.60;72.50;;;;;;5029775;28;20279;-78
2021/04/15 03:42:03;;;;;;;13.05;6.85;;;0.50;72.20;;;;;;5032110;28;20204;-79
2021/04/15 03:44:33;;;;;;;11.85;7.72;;;0.40;72.10;;;;;;5019943;28;20204;-80
2021/04/15 03:47:04;;;;;;;11.23;7.95;;;0.40;73.30;;;;;;5024305;28;20632;-80
2021/04/15 03:49:35;;;;;;;13.50;7.70;;;0.40;73.80;;;;;;5030854;28;20211;-79
2021/04/15 03:52:05;;;;;;;11.90;8.25;;;0.40;74.20;;;;;;5017983;28;20294;-78
2021/04/15 03:54:44;;;;;;;10.18;7.60;;;0.40;74.60;;;;;;5015797;28;20204;-79
2021/04/15 03:57:15;;;;;;;11.13;8.18;;;0.40;74.90;;;;;;5015697;28;20218;-79
2021/04/15 03:59:46;;;;;;;10.48;7.85;;;0.30;75.00;;;;;;5014651;28;20607;-80
2021/04/15 04:02:16;;;;;;;13.38;8.23;;;0.30;75.70;;;;;;5016559;28;20232;-80
2021/04/15 04:04:48;;;;;;;9.10;7.72;;;0.30;76.20;;;;;;5017312;28;20208;-79
2021/04/15 04:07:25;;;;;;;13.68;8.60;;;0.30;76.40;;;;;;5015333;28;20630;-79
2021/04/15 04:09:58;;;;;;;12.00;7.72;;;0.30;77.00;;;;;;5014210;28;20241;-79
2021/04/15 04:12:35;;;;;;;10.63;8.00;;;0.20;77.30;;;;;;5013579;28;20747;-80
2021/04/15 04:15:09;;;;;;;9.02;6.85;;;0.30;77.40;;;;;;5014662;28;20265;-79
2021/04/15 04:17:41;;;;;;;7.90;6.72;;;0.30;77.50;;;;;;5013982;28;20287;-79
2021/04/15 04:20:10;;;;;;;8.80;6.95;;;0.30;77.90;;;;;;5018043;28;20235;-82
2021/04/15 04:22:46;;;;;;;8.45;7.00;;;0.30;76.30;;;;;;5034308;28;20220;-79
2021/04/15 04:25:22;;;;;;;6.60;6.00;;;0.20;75.40;;;;;;5017686;28;20231;-79
2021/04/15 04:27:55;;;;;;;7.75;6.30;;;0.10;75.00;;;;;;5018502;28;20199;-79
2021/04/15 04:30:25;;;;;;;9.60;6.45;;;0.10;75.40;;;;;;5029313;28;20255;-81
2021/04/15 04:32:58;;;;;;;7.43;6.15;;;0.10;75.30;;;;;;5030659;28;20262;-79
2021/04/15 04:35:31;;;;;;;8.32;5.85;;;0.00;75.40;;;;;;5028900;28;20200;-79
2021/04/15 04:38:01;;;;;;;8.43;6.55;;;0.00;75.60;;;;;;5031904;28;20254;-79
2021/04/15 04:40:34;;;;;;;9.98;6.47;;;-0.10;75.80;;;;;;5024357;28;20335;-79
2021/04/15 04:43:06;;;;;;;13.63;6.18;;;-0.10;76.10;;;;;;5019963;28;20243;-80
2021/04/15 04:45:32;;;;;;;9.15;6.25;;;-0.10;76.90;;;;;;5019471;28;20223;-81
2021/04/15 04:48:04;;;;;;;6.47;5.82;;;-0.10;77.10;;;;;;5019933;28;20204;-78
2021/04/15 04:50:41;;;;;;;10.85;7.72;;;-0.10;77.10;;;;;;5019201;28;20285;-78
2021/04/15 04:53:11;;;;;;;10.40;6.70;;;0.00;77.20;;;;;;5025454;28;20302;-80
2021/04/15 04:55:43;;;;;;;9.35;7.20;;;0.00;77.20;;;;;;5028949;28;20250;-81
2021/04/15 04:58:12;;;;;;;10.52;7.45;;;0.00;77.50;;;;;;5029851;28;20223;-79
2021/04/15 05:00:46;;;;;;;10.82;7.60;;;0.00;77.70;;;;;;5033441;28;20211;-79
2021/04/15 05:03:18;;;;;;;13.07;8.38;;;0.10;78.60;;;;;;5024433;28;20228;-80
2021/04/15 05:05:45;;;;;;;7.93;7.13;;;0.30;77.40;;;;;;5026490;28;20215;-79
2021/04/15 05:08:15;;;;;;;12.55;7.40;;;0.50;77.60;;;;;;5024778;28;20299;-80
2021/04/15 05:10:42;;;;;;;10.95;7.65;;;0.50;75.40;;;;;;5024367;28;20188;-80
2021/04/15 05:13:15;;;;;;;12.27;8.25;;;0.50;74.40;;;;;;5022964;28;20228;-80
2021/04/15 05:15:43;;;;;;;12.00;7.32;;;0.50;74.30;;;;;;5022420;28;20290;-79
2021/04/15 05:18:12;;;;;;;11.32;8.15;;;0.60;75.40;;;;;;5028591;28;20699;-79
2021/04/15 05:20:40;;;;;;;9.40;7.28;;;1.00;73.60;;;;;;5031862;28;20234;-79
2021/04/15 05:23:17;;;;;;;9.75;7.22;;;1.40;70.30;;;;;;5032182;28;20223;-78
2021/04/15 05:25:56;;;;;;;8.30;6.80;;;1.70;67.30;;;;;;5023575;28;20294;-78
2021/04/15 05:28:23;;;;;;;6.75;6.03;;;2.00;64.10;;;;;;5020871;28;20279;-79
2021/04/15 05:30:59;;;;;;;8.32;6.38;;;2.50;62.20;;;;;;5031706;28;20187;-79
2021/04/15 05:33:27;;;;;;;9.63;6.47;;;2.40;58.40;;;;;;5024355;28;20242;-81
2021/04/15 05:36:01;;;;;;;7.60;6.00;;;2.60;56.60;;;;;;5019849;28;20563;-79
2021/04/15 05:38:30;;;;;;;9.00;6.32;;;2.90;55.20;;;;;;5020936;28;20257;-80
2021/04/15 05:40:58;;;;;;;7.30;5.72;;;2.90;53.50;;;;;;5015952;28;20703;-79
2021/04/15 05:43:34;;;;;;;5.88;5.35;;;3.20;53.50;;;;;;5019785;28;20719;-79
2021/04/15 05:46:07;;;;;;;7.72;5.90;;;3.50;51.40;;;;;;5022342;28;20233;-81
2021/04/15 05:48:35;;;;;;;8.20;6.00;;;3.10;51.10;;;;;;5033653;28;20203;-78
2021/04/15 05:51:07;;;;;;;8.05;6.75;;;3.00;51.70;;;;;;5032566;28;20216;-80
2021/04/15 05:53:38;;;;;;;6.30;5.47;;;2.90;52.90;;;;;;5021805;28;20271;-80
2021/04/15 05:56:10;;;;;;;8.95;6.72;;;3.30;52.20;;;;;;5029693;28;20326;-81
2021/04/15 05:58:41;;;;;;;6.82;5.60;;;3.40;51.50;;;;;;5032410;28;20227;-80
2021/04/15 06:01:11;;;;;;;8.35;6.18;;;3.80;50.20;;;;;;5017807;28;20205;-79
2021/04/15 06:03:49;;;;;;;7.68;6.30;;;3.90;48.20;;;;;;5013863;28;20243;-78
2021/04/15 06:06:19;;;;;;;7.32;5.70;;;4.10;48.40;;;;;;5030415;28;20214;-80
2021/04/15 06:08:49;;;;;;;7.28;5.68;;;4.20;47.80;;;;;;5040496;28;20543;-81
2021/04/15 06:11:28;;;;;;;11.35;6.63;;;4.30;46.80;;;;;;5038830;28;20234;-81
2021/04/15 06:13:59;;;;;;;9.32;6.22;;;4.30;45.90;;;;;;5032889;28;20215;-81
2021/04/15 06:16:33;;;;;;;10.88;6.00;;;3.70;48.30;;;;;;5022877;28;20211;-81
2021/04/15 06:19:03;;;;;;;10.57;6.70;;;3.00;50.70;;;;;;5027245;28;20217;-82
2021/04/15 06:21:36;;;;;;;9.10;6.47;;;3.00;52.30;;;;;;5027627;28;20204;-79
2021/04/15 06:24:07;;;;;;;8.07;6.18;;;3.10;51.80;;;;;;5032438;28;20263;-81
2021/04/15 06:26:42;;;;;;;8.38;6.95;;;2.90;51.70;;;;;;5024861;28;20647;-81
2021/04/15 06:29:20;;;;;;;8.02;6.32;;;2.70;53.30;;;;;;5026483;28;20207;-81
2021/04/15 06:31:51;;;;;;;8.10;6.13;;;2.70;53.30;;;;;;5026952;28;20227;-80
2021/04/15 06:34:19;;;;;;;10.60;5.93;;;2.80;53.40;;;;;;5028397;28;20223;-82
2021/04/15 06:36:53;;;;;;;7.53;5.32;;;2.80;53.40;;;;;;5025012;28;20208;-81
2021/04/15 06:39:27;;;;;;;7.25;5.68;;;2.40;55.10;;;;;;5030431;28;20296;-83
2021/04/15 06:42:36;;;;;;;7.88;5.35;;;2.40;55.90;;;;;;5026252;28;20223;-82
2021/04/15 06:45:21;;;;;;;8.57;5.18;;;2.40;56.20;;;;;;5032660;28;20208;-78
2021/04/15 06:48:10;;;;;;;6.03;5.10;;;2.40;55.80;;;;;;5012593;28;20212;-78
2021/04/15 06:50:48;;;;;;;5.65;5.13;;;2.40;56.10;;;;;;5011706;28;20200;-79
2021/04/15 06:53:27;;;;;;;9.43;5.80;;;2.50;56.50;;;;;;5013556;28;20224;-79
2021/04/15 06:56:23;;;;;;;7.25;5.55;;;2.70;55.30;;;;;;5000724;28;20239;-79
2021/04/15 06:59:11;;;;;;;9.57;5.30;;;2.80;54.10;;;;;;5013549;28;20289;-79
2021/04/15 07:01:57;;;;;;;7.93;4.50;;;2.80;53.40;;;;;;5001405;28;20270;-80
2021/04/15 07:04:26;;;;;;;6.43;4.95;;;3.00;53.20;;;;;;5025178;28;20187;-80
2021/04/15 07:07:00;;;;;;;5.65;4.78;;;3.10;52.30;;;;;;5026106;28;20373;-79
2021/04/15 07:09:52;;;;;;;5.13;4.53;;;3.00;53.00;;;;;;5024844;28;20226;-79
2021/04/15 07:13:00;;;;;;;8.18;4.72;;;3.10;51.80;;;;;;5010076;28;20232;-80
2021/04/15 07:15:50;;;;;;;5.40;4.57;;;3.30;51.00;;;;;;5004051;28;20204;-81
2021/04/15 07:18:53;;;;;;;6.53;4.70;;;3.40;50.40;;;;;;5019871;28;20711;-79
2021/04/15 07:21:54;;;;;;;6.18;4.63;;;3.60;50.00;;;;;;5021701;28;20218;-80
2021/04/15 07:24:35;;;;;;;6.30;4.78;;;3.60;49.30;;;;;;5021667;28;20191;-78
2021/04/15 07:27:27;;;;;;;8.95;4.90;;;3.70;49.50;;;;;;5018772;28;20196;-79
2021/04/15 07:30:30;;;;;;;5.32;4.78;;;3.70;48.30;;;;;;5022200;28;20488;-81
2021/04/15 07:33:24;;;;;;;4.97;4.47;;;3.70;48.80;;;;;;5022235;28;20251;-79
2021/04/15 07:36:25;;;;;;;5.40;4.32;;;3.90;48.20;;;;;;5024118;28;20250;-82
2021/04/15 07:39:07;;;;;;;7.05;4.57;;;3.90;48.30;;;;;;5027035;28;20295;-81
2021/04/15 07:41:42;;;;;;;4.95;4.28;;;4.10;47.90;;;;;;5034295;28;20234;-81
2021/04/15 07:44:35;;;;;;;4.30;3.90;;;4.20;46.90;;;;;;5036074;28;20192;-83
2021/04/15 07:47:27;;;;;;;5.95;4.38;;;4.40;45.60;;;;;;5035760;28;20196;-83
2021/04/15 07:50:30;;;;;;;4.10;3.70;;;4.50;45.70;;;;;;5033417;28;20220;-81
2021/04/15 07:53:21;;;;;;;7.30;4.25;;;4.70;45.60;;;;;;5027454;28;20274;-80
2021/04/15 07:56:04;;;;;;;7.88;4.25;;;4.90;45.30;;;;;;5006055;28;20219;-80
2021/04/15 07:58:46;;;;;;;5.55;3.80;;;4.90;45.10;;;;;;4998417;28;20264;-80
2021/04/15 08:01:42;;;;;;;6.53;4.70;;;4.90;45.30;;;;;;4999820;28;20307;-78
2021/04/15 08:04:38;;;;;;;8.15;4.10;;;4.90;44.50;;;;;;4984177;28;20219;-78
2021/04/15 08:07:42;;;;;;;5.38;3.90;;;4.90;44.30;;;;;;5021041;28;20192;-77
2021/04/15 08:10:46;;;;;;;4.65;3.60;;;5.10;44.20;;;;;;4965942;29;20209;-80
2021/04/15 08:13:45;;;;;;;10.57;3.92;;;5.50;43.70;;;;;;5016764;28;20234;-79
2021/04/15 08:16:56;;;;;;;4.18;3.78;;;5.70;41.30;;;;;;5001078;28;20201;-82
2021/04/15 08:19:59;;;;;;;7.40;4.35;;;5.70;41.80;;;;;;5002381;28;20227;-79
2021/04/15 08:22:38;;;;;;;4.53;4.13;;;5.70;41.70;;;;;;5032673;28;20290;-78
2021/04/15 08:25:14;;;;;;;6.32;4.15;;;5.90;40.90;;;;;;5032271;28;20192;-79
2021/04/15 08:28:09;;;;;;;4.82;4.05;;;6.10;40.50;;;;;;5035936;28;20263;-82
2021/04/15 08:31:03;;;;;;;7.43;3.92;;;6.20;40.40;;;;;;4996341;28;20323;-80
2021/04/15 08:33:54;;;;;;;5.90;4.38;;;6.20;39.10;;;;;;5026196;28;20236;-80
2021/04/15 08:36:51;;;;;;;4.97;3.45;;;6.10;38.80;;;;;;5027530;28;20207;-81
2021/04/15 08:39:32;;;;;;;4.05;3.65;;;6.20;38.60;;;;;;5022581;28;20224;-79
2021/04/15 08:42:08;;;;;;;6.78;4.60;;;6.40;38.20;;;;;;5023909;28;20203;-80
2021/04/15 08:45:01;;;;;;;5.70;3.60;;;6.70;37.60;;;;;;5023488;28;20200;-82
2021/04/15 08:47:55;;;;;;;5.55;3.80;;;6.90;37.10;;;;;;5021216;28;20267;-79
2021/04/15 08:50:37;;;;;;;5.47;3.70;;;7.10;37.10;;;;;;4966184;29;20210;-79
2021/04/15 08:53:18;;;;;;;6.70;3.42;;;7.00;36.50;;;;;;4968305;28;20238;-78
2021/04/15 08:55:50;;;;;;;4.45;4.03;;;7.20;35.40;;;;;;4971846;28;20225;-79
2021/04/15 08:58:41;;;;;;;3.65;3.35;;;7.30;34.60;;;;;;4971744;29;20218;-80
2021/04/15 09:01:17;;;;;;;4.22;3.80;;;7.10;35.80;;;;;;4974053;29;20190;-78
2021/04/15 09:03:52;;;;;;;3.60;3.30;;;7.50;35.30;;;;;;4974201;29;20232;-78
2021/04/15 09:06:23;;;;;;;4.15;3.67;;;7.90;34.60;;;;;;4973715;28;20236;-78
2021/04/15 09:09:21;;;;;;;3.35;3.05;;;7.70;33.50;;;;;;4973437;28;20202;-79
2021/04/15 09:12:01;;;;;;;4.35;3.75;;;7.60;32.60;;;;;;4972762;28;20373;-79
2021/04/15 09:14:39;;;;;;;3.78;3.47;;;7.90;31.40;;;;;;4972206;28;20214;-78
2021/04/15 09:17:08;;;;;;;4.20;3.50;;;7.60;32.20;;;;;;4970726;29;20182;-80
2021/04/15 09:19:46;;;;;;;3.75;3.45;;;7.70;32.50;;;;;;4983735;28;20229;-79
2021/04/15 09:22:41;;;;;;;5.50;3.25;;;7.70;31.50;;;;;;4973338;28;20229;-80
2021/04/15 09:25:18;;;;;;;4.00;3.58;;;7.70;32.50;;;;;;4974291;28;20202;-80
2021/04/15 09:27:58;;;;;;;4.00;3.35;;;7.70;32.90;;;;;;5014578;28;20191;-82
2021/04/15 09:31:05;;;;;;;5.70;3.10;;;7.60;32.00;;;;;;5028062;28;20215;-78
2021/04/15 09:33:53;;;;;;;6.05;4.55;;;7.80;31.50;;;;;;5032386;28;20231;-78
2021/04/15 09:36:30;;;;;;;4.45;3.65;;;7.90;31.20;;;;;;5032540;28;20184;-81
2021/04/15 09:39:20;;;;;;;4.68;2.75;;;7.80;31.90;;;;;;5030810;28;20295;-79
2021/04/15 09:42:31;;;;;;;6.78;3.25;;;7.50;29.30;;;;;;5028184;28;20208;-79
2021/04/15 09:45:25;;;;;;;3.78;2.65;;;7.70;29.80;;;;;;4999606;28;20213;-78
2021/04/15 09:48:06;;;;;;;3.38;2.53;;;8.30;28.80;;;;;;5028006;28;20687;-79
2021/04/15 09:50:41;;;;;;;2.67;2.05;;;8.30;26.90;;;;;;5026272;28;20261;-81
2021/04/15 09:53:33;;;;;;;3.63;2.55;;;8.60;26.30;;;;;;5023941;28;20254;-80
2021/04/15 09:56:15;;;;;;;6.40;2.00;;;9.00;25.50;;;;;;5014828;28;20192;-80
2021/04/15 09:58:55;;;;;;;2.20;1.70;;;8.70;24.80;;;;;;5023938;28;20358;-78
2021/04/15 10:01:28;;;;;;;2.13;1.95;;;8.50;23.00;;;;;;5021693;28;20287;-80
2021/04/15 10:04:00;;;;;;;1.67;1.58;;;8.80;23.60;;;;;;5026137;28;20232;-80
2021/04/15 10:06:29;;;;;;;2.65;1.90;;;8.80;23.20;;;;;;5017260;28;20678;-79
2021/04/15 10:09:26;;;;;;;2.35;2.15;;;9.00;22.80;;;;;;5022657;28;20216;-80
2021/04/15 10:12:29;;;;;;;3.33;2.10;;;9.00;23.00;;;;;;5022813;28;20213;-81
2021/04/15 10:15:23;;;;;;;3.45;1.80;;;9.20;22.40;;;;;;5000400;28;20230;-79
2021/04/15 10:18:04;;;;;;;2.80;2.15;;;9.00;23.10;;;;;;5015291;28;20201;-79
2021/04/15 10:20:59;;;;;;;3.00;2.70;;;9.10;22.20;;;;;;5026026;28;20208;-79
2021/04/15 10:23:53;;;;;;;4.47;2.55;;;9.60;23.10;;;;;;4999896;28;20228;-77
2021/04/15 10:26:54;;;;;;;3.40;2.45;;;9.90;22.90;;;;;;5009401;28;20203;-80
2021/04/15 10:29:40;;;;;;;2.65;2.33;;;9.80;22.30;;;;;;5037142;28;20310;-80
2021/04/15 10:32:26;;;;;;;4.00;2.70;;;9.60;22.20;;;;;;5036186;28;20224;-79
2021/04/15 10:35:15;;;;;;;2.83;2.33;;;9.10;22.30;;;;;;5014940;28;20227;-80
2021/04/15 10:38:21;;;;;;;3.95;2.70;;;9.10;21.90;;;;;;5008818;28;20212;-81
2021/04/15 10:40:55;;;;;;;2.50;2.30;;;9.00;22.40;;;;;;5015335;28;20194;-79
2021/04/15 10:43:49;;;;;;;2.60;2.40;;;9.40;22.10;;;;;;5031065;28;20227;-79
2021/04/15 10:46:47;;;;;;;2.42;2.22;;;9.60;22.20;;;;;;5034949;28;20252;-78
2021/04/15 10:49:41;;;;;;;3.40;2.63;;;9.60;22.20;;;;;;5035765;28;20200;-78
2021/04/15 10:52:22;;;;;;;2.63;2.42;;;9.50;22.10;;;;;;5031266;28;20211;-78
2021/04/15 10:54:50;;;;;;;5.35;2.70;;;9.40;22.10;;;;;;5036195;28;20204;-81
2021/04/15 10:57:20;;;;;;;2.90;2.40;;;9.60;22.20;;;;;;5036800;28;20255;-82
2021/04/15 10:59:49;;;;;;;2.80;2.60;;;10.00;22.20;;;;;;5036816;28;20291;-78
2021/04/15 11:02:22;;;;;;;2.50;2.30;;;10.10;20.70;;;;;;5036647;28;20235;-80
2021/04/15 11:04:51;;;;;;;4.50;2.40;;;10.60;18.90;;;;;;5029550;28;20218;-80
2021/04/15 11:07:22;;;;;;;2.60;2.28;;;10.70;18.40;;;;;;5024508;28;20204;-79
2021/04/15 11:09:51;;;;;;;4.60;2.63;;;11.10;19.00;;;;;;5017820;28;20617;-79
2021/04/15 11:12:26;;;;;;;2.47;2.28;;;10.70;21.50;;;;;;5020506;28;20568;-80
2021/04/15 11:15:11;;;;;;;3.17;2.80;;;9.60;23.30;;;;;;5020239;28;20211;-79
2021/04/15 11:17:42;;;;;;;3.65;2.40;;;9.50;23.60;;;;;;5019593;28;20226;-79
2021/04/15 11:20:25;;;;;;;5.90;3.47;;;9.10;25.70;;;;;;5016890;28;20308;-79
2021/04/15 11:23:03;;;;;;;3.60;2.95;;;9.00;27.40;;;;;;5017196;28;20747;-78
2021/04/15 11:25:34;;;;;;;3.88;2.90;;;8.80;27.80;;;;;;5033276;28;20191;-79
2021/04/15 11:28:08;;;;;;;4.85;3.10;;;9.30;28.40;;;;;;5037421;28;20389;-78
2021/04/15 11:30:41;;;;;;;3.45;3.00;;;9.70;27.60;;;;;;5036942;28;20239;-77
2021/04/15 11:33:12;;;;;;;4.28;3.88;;;9.70;27.90;;;;;;5036626;28;20220;-81
2021/04/15 11:35:40;;;;;;;5.15;2.67;;;9.70;28.00;;;;;;5036080;28;20207;-79
2021/04/15 11:38:16;;;;;;;3.22;2.92;;;9.50;28.30;;;;;;5035585;28;20222;-79
2021/04/15 11:40:45;;;;;;;2.95;2.60;;;9.70;27.60;;;;;;5036300;28;20226;-81
2021/04/15 11:43:22;;;;;;;6.75;3.00;;;9.50;28.00;;;;;;5032479;28;20223;-79
2021/04/15 11:45:49;;;;;;;3.55;3.25;;;10.20;26.10;;;;;;5029614;28;20289;-81
2021/04/15 11:48:21;;;;;;;2.97;2.70;;;9.90;26.90;;;;;;5029363;28;20200;-78
2021/04/15 11:50:50;;;;;;;3.92;3.55;;;10.40;23.80;;;;;;5029098;28;20211;-78
2021/04/15 11:53:39;;;;;;;3.60;3.28;;;10.40;23.00;;;;;;5027909;28;20749;-80
2021/04/15 11:56:25;;;;;;;4.05;3.00;;;10.20;22.30;;;;;;5027680;28;20250;-79
2021/04/15 11:58:53;;;;;;;2.75;2.55;;;9.90;25.50;;;;;;5030131;28;20235;-79
2021/04/15 12:01:30;;;;;;;4.93;3.33;;;10.00;23.30;;;;;;5024749;28;20271;-80
2021/04/15 12:04:02;;;;;;;3.47;2.60;;;10.40;20.80;;;;;;5028929;28;20223;-79
2021/04/15 12:06:35;;;;;;;5.68;2.70;;;10.50;21.30;;;;;;5035636;28;20192;-77
2021/04/15 12:09:03;;;;;;;3.40;3.10;;;10.50;20.30;;;;;;5033873;28;20184;-79
2021/04/15 12:11:35;;;;;;;2.88;2.65;;;9.80;22.30;;;;;;5019876;28;20204;-79
2021/04/15 12:14:07;;;;;;;3.42;3.13;;;9.70;22.30;;;;;;5026363;28;20227;-80
2021/04/15 12:16:48;;;;;;;4.53;3.03;;;9.90;23.00;;;;;;5024147;28;20215;-80
2021/04/15 12:19:28;;;;;;;5.20;2.72;;;9.90;23.30;;;;;;5024248;28;20290;-79
2021/04/15 12:22:02;;;;;;;5.05;2.38;;;10.40;22.00;;;;;;5023873;28;20196;-81
2021/04/15 12:24:38;;;;;;;3.17;2.88;;;9.90;23.00;;;;;;5024775;28;20231;-79
2021/04/15 12:27:08;;;;;;;2.35;2.15;;;10.20;21.80;;;;;;5023234;28;20678;-78
2021/04/15 12:29:39;;;;;;;5.70;2.42;;;10.20;19.40;;;;;;5022101;28;20259;-80
2021/04/15 12:32:12;;;;;;;3.88;2.53;;;9.80;20.30;;;;;;5021985;28;20236;-78
2021/04/15 12:34:56;;;;;;;2.67;2.47;;;9.90;18.90;;;;;;5018140;28;20866;-78
2021/04/15 12:37:29;;;;;;;2.30;2.10;;;9.80;18.70;;;;;;5020115;28;20261;-79
2021/04/15 12:40:21;;;;;;;2.97;2.10;;;9.70;18.80;;;;;;5025781;28;20231;-78
2021/04/15 12:42:48;;;;;;;2.53;2.33;;;9.70;19.00;;;;;;5024370;28;20219;-79
2021/04/15 12:45:25;;;;;;;4.07;2.80;;;9.60;19.40;;;;;;5021648;28;20212;-79
2021/04/15 12:47:53;;;;;;;3.28;2.30;;;9.70;19.90;;;;;;5019687;28;20266;-79
2021/04/15 12:50:20;;;;;;;2.40;2.20;;;10.20;19.00;;;;;;5021117;28;20672;-79
2021/04/15 12:52:50;;;;;;;2.90;2.70;;;10.70;18.50;;;;;;5022552;28;20232;-80
2021/04/15 12:55:20;;;;;;;3.28;2.40;;;10.80;18.10;;;;;;5020197;28;20215;-80
2021/04/15 12:57:48;;;;;;;3.35;3.05;;;11.10;17.50;;;;;;5021901;28;20203;-79
2021/04/15 13:00:20;;;;;;;7.28;3.50;;;11.10;21.80;;;;;;5023207;28;20331;-80
2021/04/15 13:02:47;;;;;;;3.65;2.90;;;10.90;22.30;;;;;;5021725;28;20232;-79
2021/04/15 13:05:52;;;;;;;7.65;4.47;;;10.30;23.90;;;;;;5025190;28;20211;-82
2021/04/15 13:08:25;;;;;;;3.05;2.85;;;9.40;26.50;;;;;;5025904;28;20199;-79
2021/04/15 13:10:52;;;;;;;3.25;2.70;;;9.00;26.90;;;;;;5029094;28;20196;-80
2021/04/15 13:13:39;;;;;;;2.60;2.40;;;9.20;26.70;;;;;;5023632;28;20274;-80
2021/04/15 13:16:07;;;;;;;4.60;3.08;;;9.10;25.90;;;;;;5008015;28;20212;-79
2021/04/15 13:18:41;;;;;;;3.55;2.60;;;9.10;25.90;;;;;;5013301;28;20216;-80
2021/04/15 13:21:14;;;;;;;2.90;2.70;;;9.20;26.00;;;;;;5012073;28;20680;-80
2021/04/15 13:23:44;;;;;;;4.40;3.38;;;9.00;25.10;;;;;;5024253;28;20228;-81
2021/04/15 13:26:33;;;;;;;3.00;2.80;;;9.10;24.70;;;;;;5029963;28;20234;-80
2021/04/15 13:29:12;;;;;;;3.10;2.80;;;9.20;23.70;;;;;;5025184;28;20227;-79
2021/04/15 13:31:44;;;;;;;2.45;2.25;;;8.90;24.30;;;;;;5026090;28;20212;-79
2021/04/15 13:34:12;;;;;;;3.55;2.70;;;9.00;23.90;;;;;;5024748;28;20506;-81
2021/04/15 13:36:40;;;;;;;3.42;3.13;;;8.80;24.10;;;;;;5023751;28;20395;-78
2021/04/15 13:39:35;;;;;;;2.92;2.60;;;9.00;23.40;;;;;;5023820;28;20611;-79
2021/04/15 13:42:32;;;;;;;3.25;2.55;;;9.30;22.00;;;;;;5020588;28;20542;-82
2021/04/15 13:45:04;;;;;;;2.92;2.65;;;9.50;22.10;;;;;;4999896;28;20232;-80
2021/04/15 13:47:53;;;;;;;3.05;2.65;;;9.70;22.10;;;;;;5019980;28;20266;-80
2021/04/15 13:50:41;;;;;;;3.13;2.80;;;10.30;20.40;;;;;;5026001;28;20239;-80